Time;durP1;ratioP1;P1;durP2;ratioP2;P2;SDS_P1;SDS_P2;PMS_P1;PMS_P2;Temp;Humidity;BMP_temperature;BMP_pressure;BME280_temperature;BME280_humidity;BME280_pressure;Samples;Min_cycle;Max_cycle;Signal;HPM_P1;HPM_P2
2023/04/20 00:01:46;;;;;;;4.40;4.10;;;;;;;8.18;100.00;102582.16;5071792;28;20453;-47
2023/04/20 00:04:16;;;;;;;4.87;4.23;;;;;;;8.14;99.06;102584.22;5066640;28;20465;-50
2023/04/20 00:06:45;;;;;;;4.80;4.40;;;;;;;8.15;93.19;102579.75;5071412;28;20492;-47
2023/04/20 00:09:14;;;;;;;4.90;4.50;;;;;;;8.15;97.97;102574.44;5070975;28;20493;-48
2023/04/20 00:11:43;;;;;;;4.00;3.60;;;;;;;8.20;94.12;102574.88;5071378;28;20500;-46
2023/04/20 00:14:11;;;;;;;3.90;3.70;;;;;;;8.23;95.48;102569.28;5071651;28;20516;-45
2023/04/20 00:16:38;;;;;;;3.67;3.37;;;;;;;8.22;100.00;102556.97;5071334;28;20968;-50
2023/04/20 00:19:08;;;;;;;4.27;3.97;;;;;;;8.21;95.22;102568.59;5068176;28;20489;-46
2023/04/20 00:21:36;;;;;;;3.60;3.40;;;;;;;8.13;90.63;102558.63;5074366;28;20434;-49
2023/04/20 00:24:03;;;;;;;5.03;4.73;;;;;;;8.12;93.76;102542.84;5075312;28;20437;-48
2023/04/20 00:26:31;;;;;;;4.03;3.83;;;;;;;8.10;93.92;102550.06;5075105;28;20454;-47
2023/04/20 00:29:05;;;;;;;3.83;3.63;;;;;;;8.05;89.04;102552.31;5074975;28;20545;-47
2023/04/20 00:31:33;;;;;;;4.30;3.90;;;;;;;8.02;89.60;102545.47;5075213;28;20776;-49
2023/04/20 00:34:01;;;;;;;3.70;3.50;;;;;;;7.96;90.74;102539.84;5075157;28;20434;-44
2023/04/20 00:36:29;;;;;;;4.10;3.83;;;;;;;7.96;89.12;102551.31;5075130;28;20808;-45
2023/04/20 00:38:57;;;;;;;4.10;3.90;;;;;;;7.90;90.09;102546.53;5074676;28;20837;-46
2023/04/20 00:41:25;;;;;;;4.10;3.80;;;;;;;7.88;92.73;102539.69;5074789;28;20470;-53
2023/04/20 00:43:54;;;;;;;3.87;3.57;;;;;;;7.86;97.81;102534.50;5075410;28;20462;-45
2023/04/20 00:46:23;;;;;;;4.13;3.93;;;;;;;7.80;97.15;102537.69;5074845;28;20892;-46
2023/04/20 00:48:52;;;;;;;4.50;4.10;;;;;;;7.75;98.15;102524.84;5048513;28;20458;-44
2023/04/20 00:51:21;;;;;;;3.70;3.50;;;;;;;7.71;94.34;102541.16;5074631;28;20927;-49
2023/04/20 00:53:49;;;;;;;4.30;4.00;;;;;;;7.71;97.86;102536.69;5074686;28;20950;-46
2023/04/20 00:56:18;;;;;;;5.47;4.63;;;;;;;7.66;90.31;102528.28;5074604;28;20452;-46
2023/04/20 00:58:46;;;;;;;4.23;3.93;;;;;;;7.65;96.85;102525.75;5074273;28;20470;-49
2023/04/20 01:01:16;;;;;;;3.90;3.70;;;;;;;7.64;94.57;102521.44;5074371;28;20476;-45
2023/04/20 01:03:45;;;;;;;4.23;3.93;;;;;;;7.63;98.83;102511.78;5074208;28;20453;-50
2023/04/20 01:06:13;;;;;;;4.30;4.07;;;;;;;7.60;97.30;102514.72;5074402;28;20839;-43
2023/04/20 01:08:48;;;;;;;4.30;4.10;;;;;;;7.61;95.66;102503.97;5073110;28;20455;-44
2023/04/20 01:11:16;;;;;;;4.53;4.33;;;;;;;7.59;95.44;102516.53;5067180;28;20434;-46
2023/04/20 01:13:44;;;;;;;4.00;3.70;;;;;;;7.56;95.71;102500.84;5074389;28;20560;-49
2023/04/20 01:16:12;;;;;;;4.90;4.50;;;;;;;7.54;97.66;102502.81;5074122;28;20908;-46
2023/04/20 01:18:43;;;;;;;3.80;3.70;;;;;;;7.49;100.00;102502.38;5070985;28;20490;-47
2023/04/20 01:21:12;;;;;;;4.80;4.50;;;;;;;7.49;100.00;102497.06;5074446;28;20433;-46
2023/04/20 01:23:42;;;;;;;3.83;3.63;;;;;;;7.46;100.00;102491.19;5074181;28;20434;-45
2023/04/20 01:26:11;;;;;;;3.90;3.60;;;;;;;7.42;99.32;102484.47;5074251;28;20503;-43
2023/04/20 01:28:39;;;;;;;5.20;3.57;;;;;;;7.34;100.00;102490.44;5073628;28;20465;-48
2023/04/20 01:31:08;;;;;;;4.10;3.90;;;;;;;7.29;99.44;102489.16;5074227;28;20435;-47
2023/04/20 01:33:36;;;;;;;4.03;3.73;;;;;;;7.25;100.00;102491.25;5073341;28;20426;-42
2023/04/20 01:36:05;;;;;;;3.70;3.50;;;;;;;7.18;100.00;102487.41;5074034;28;20533;-45
2023/04/20 01:38:33;;;;;;;3.93;3.73;;;;;;;7.10;100.00;102487.25;5073467;28;20477;-44
2023/04/20 01:41:04;;;;;;;4.53;4.23;;;;;;;7.04;100.00;102485.97;5073970;28;20838;-44
2023/04/20 01:43:32;;;;;;;4.30;4.00;;;;;;;7.02;100.00;102490.53;5073656;28;20430;-51
2023/04/20 01:46:01;;;;;;;5.00;4.70;;;;;;;6.98;100.00;102469.72;5073843;28;20832;-44
2023/04/20 01:48:29;;;;;;;4.13;3.83;;;;;;;6.94;100.00;102481.56;5073350;28;20454;-49
2023/04/20 01:50:56;;;;;;;3.90;3.70;;;;;;;6.95;100.00;102478.78;5073925;28;20437;-47
2023/04/20 01:53:24;;;;;;;3.80;3.57;;;;;;;6.91;100.00;102466.75;5073582;28;20887;-48
2023/04/20 01:55:52;;;;;;;3.93;3.73;;;;;;;6.87;100.00;102469.81;5073523;28;20983;-49
2023/04/20 01:58:21;;;;;;;4.30;4.00;;;;;;;6.89;100.00;102466.06;5073134;28;20486;-47
2023/04/20 02:00:49;;;;;;;4.20;3.90;;;;;;;6.90;100.00;102491.59;5073661;28;20433;-46
2023/04/20 02:03:16;;;;;;;4.33;3.93;;;;;;;6.93;100.00;102482.56;5073601;28;20989;-46
2023/04/20 02:05:44;;;;;;;3.80;3.60;;;;;;;6.94;100.00;102486.88;5073440;28;20773;-50
2023/04/20 02:08:12;;;;;;;4.60;4.20;;;;;;;6.95;100.00;102457.56;5072782;28;20462;-48
2023/04/20 02:10:40;;;;;;;4.90;4.60;;;;;;;6.95;100.00;102464.69;5073320;28;20430;-47
2023/04/20 02:13:07;;;;;;;5.03;4.53;;;;;;;6.92;100.00;102476.41;5073292;28;20475;-47
2023/04/20 02:15:36;;;;;;;4.33;4.03;;;;;;;6.86;100.00;102479.56;5073204;28;20434;-44
2023/04/20 02:18:05;;;;;;;4.43;4.13;;;;;;;6.84;100.00;102468.25;5069229;28;20512;-44
2023/04/20 02:20:33;;;;;;;4.00;3.90;;;;;;;6.84;100.00;102451.50;5073137;28;20427;-43
2023/04/20 02:23:00;;;;;;;4.90;4.50;;;;;;;6.83;100.00;102458.63;5072769;28;20441;-49
2023/04/20 02:25:29;;;;;;;4.27;4.07;;;;;;;6.83;100.00;102450.66;5073167;28;20438;-48
2023/04/20 02:27:56;;;;;;;7.23;3.77;;;;;;;6.84;100.00;102457.63;5072526;28;20458;-46
2023/04/20 02:30:24;;;;;;;4.13;3.83;;;;;;;6.82;100.00;102456.09;5072785;28;20436;-45
2023/04/20 02:32:53;;;;;;;4.37;4.07;;;;;;;6.84;100.00;102452.31;5072762;28;20426;-43
2023/04/20 02:35:21;;;;;;;4.27;4.03;;;;;;;6.90;100.00;102438.53;5072935;28;20854;-50
2023/04/20 02:37:49;;;;;;;3.90;3.70;;;;;;;6.90;100.00;102443.84;5071815;28;20470;-47
2023/04/20 02:40:16;;;;;;;3.67;3.47;;;;;;;6.93;100.00;102435.63;5072732;28;20958;-48
2023/04/20 02:42:44;;;;;;;4.20;4.00;;;;;;;6.97;100.00;102447.66;5072538;28;20772;-46
2023/04/20 02:45:12;;;;;;;3.50;3.30;;;;;;;7.01;100.00;102435.00;5071776;28;20781;-48
2023/04/20 02:47:40;;;;;;;5.97;3.93;;;;;;;7.01;100.00;102441.13;5072383;28;20454;-44
2023/04/20 02:50:11;;;;;;;4.43;4.13;;;;;;;7.00;100.00;102431.50;5064994;28;20466;-45
2023/04/20 02:52:38;;;;;;;4.00;3.60;;;;;;;7.02;100.00;102437.50;5072476;28;20419;-49
2023/04/20 02:55:07;;;;;;;3.50;3.40;;;;;;;7.05;100.00;102429.28;5072492;28;20469;-47
2023/04/20 02:57:35;;;;;;;4.13;3.83;;;;;;;7.06;100.00;102416.84;5072230;28;20971;-48
2023/04/20 03:00:02;;;;;;;4.20;3.90;;;;;;;7.01;100.00;102427.88;5071855;28;20466;-48
2023/04/20 03:02:30;;;;;;;4.13;3.83;;;;;;;6.98;100.00;102429.94;5071923;28;20433;-48
2023/04/20 03:04:58;;;;;;;7.70;4.50;;;;;;;6.92;100.00;102431.31;5072553;28;20687;-48
2023/04/20 03:07:27;;;;;;;4.50;4.30;;;;;;;6.85;100.00;102440.75;5072399;28;20805;-47
2023/04/20 03:09:55;;;;;;;3.90;3.80;;;;;;;6.82;100.00;102413.66;5071792;28;20458;-43
2023/04/20 03:12:23;;;;;;;5.83;4.77;;;;;;;6.82;100.00;102430.41;5072041;28;20431;-46
2023/04/20 03:14:50;;;;;;;5.27;4.93;;;;;;;6.75;100.00;102416.00;5072107;28;20990;-46
2023/04/20 03:17:18;;;;;;;4.73;4.43;;;;;;;6.73;100.00;102417.09;5071884;28;20454;-44
2023/04/20 03:19:46;;;;;;;4.17;3.97;;;;;;;6.69;100.00;102427.13;5071541;28;20471;-47
2023/04/20 03:22:14;;;;;;;4.03;3.83;;;;;;;6.68;100.00;102433.41;5071919;28;20804;-45
2023/04/20 03:24:43;;;;;;;4.40;4.00;;;;;;;6.64;100.00;102430.19;5072064;28;20438;-45
2023/04/20 03:27:10;;;;;;;4.47;4.27;;;;;;;6.66;100.00;102425.56;5071952;28;20511;-46
2023/04/20 03:29:38;;;;;;;4.40;4.20;;;;;;;6.63;100.00;102432.97;5071347;28;20454;-45
2023/04/20 03:32:06;;;;;;;4.80;4.40;;;;;;;6.62;100.00;102424.16;5071701;28;20525;-47
2023/04/20 03:34:34;;;;;;;6.17;4.50;;;;;;;6.64;100.00;102421.38;5071839;28;21006;-45
2023/04/20 03:37:01;;;;;;;5.27;4.97;;;;;;;6.64;100.00;102413.44;5071810;28;20851;-44
2023/04/20 03:39:29;;;;;;;4.87;4.67;;;;;;;6.64;100.00;102413.44;5071370;28;20474;-48
2023/04/20 03:41:58;;;;;;;4.73;4.47;;;;;;;6.64;100.00;102408.97;5071573;28;20501;-46
2023/04/20 03:44:26;;;;;;;4.60;4.03;;;;;;;6.62;100.00;102415.38;5071912;28;20441;-47
2023/04/20 03:46:53;;;;;;;5.93;4.00;;;;;;;6.58;100.00;102430.69;5071507;28;20465;-44
2023/04/20 03:49:24;;;;;;;3.90;3.60;;;;;;;6.57;100.00;102417.59;5071354;28;20454;-49
2023/04/20 03:51:52;;;;;;;5.93;4.40;;;;;;;6.64;100.00;102418.72;5071502;28;20990;-46
2023/04/20 03:54:19;;;;;;;4.70;4.40;;;;;;;6.66;100.00;102408.81;5071636;28;20431;-48
2023/04/20 03:56:48;;;;;;;5.53;5.23;;;;;;;6.69;100.00;102412.06;5071060;28;20457;-50
2023/04/20 03:59:17;;;;;;;6.23;5.73;;;;;;;6.73;100.00;102423.25;5071130;28;20565;-44
2023/04/20 04:01:45;;;;;;;4.87;4.47;;;;;;;6.75;100.00;102416.00;5071484;28;20430;-47
2023/04/20 04:04:12;;;;;;;4.67;4.37;;;;;;;6.75;100.00;102400.09;5071611;28;20962;-46
2023/04/20 04:06:41;;;;;;;4.90;4.50;;;;;;;6.74;100.00;102414.34;5071581;28;20542;-48
2023/04/20 04:09:08;;;;;;;5.07;4.80;;;;;;;6.73;100.00;102410.00;5070994;28;20458;-49
2023/04/20 04:11:36;;;;;;;4.70;4.40;;;;;;;6.75;100.00;102393.97;5071481;28;20443;-46
2023/04/20 04:14:04;;;;;;;5.13;4.63;;;;;;;6.75;100.00;102408.03;5071429;28;20436;-46
2023/04/20 04:16:33;;;;;;;4.53;4.17;;;;;;;6.74;100.00;102421.44;5071582;28;20485;-47
2023/04/20 04:19:01;;;;;;;4.33;3.93;;;;;;;6.72;100.00;102399.53;5067161;28;20556;-49
2023/04/20 04:21:29;;;;;;;4.63;4.23;;;;;;;6.65;100.00;102397.41;5071241;28;20827;-50
2023/04/20 04:23:57;;;;;;;5.20;4.73;;;;;;;6.51;100.00;102391.59;5071615;28;20835;-48
2023/04/20 04:26:25;;;;;;;4.60;4.30;;;;;;;6.50;100.00;102397.84;5071448;28;20890;-44
2023/04/20 04:28:54;;;;;;;4.90;4.60;;;;;;;6.54;100.00;102397.44;5071137;28;20531;-44
2023/04/20 04:31:22;;;;;;;6.07;4.80;;;;;;;6.53;100.00;102402.91;5071163;28;20430;-46
2023/04/20 04:33:51;;;;;;;5.73;5.10;;;;;;;6.53;100.00;102424.09;5071376;28;20434;-47
2023/04/20 04:36:18;;;;;;;5.33;5.03;;;;;;;6.58;100.00;102403.34;5071030;28;20454;-46
2023/04/20 04:38:46;;;;;;;6.30;4.80;;;;;;;6.56;100.00;102397.34;5070958;28;20466;-48
2023/04/20 04:41:14;;;;;;;4.97;4.70;;;;;;;6.62;100.00;102418.88;5071254;28;20860;-49
2023/04/20 04:43:42;;;;;;;4.20;4.00;;;;;;;6.72;100.00;102397.69;5071111;28;20445;-46
2023/04/20 04:46:11;;;;;;;6.20;4.60;;;;;;;6.74;100.00;102401.06;5071138;28;20549;-44
2023/04/20 04:48:41;;;;;;;4.23;4.03;;;;;;;6.75;100.00;102402.72;5070746;28;20504;-49
2023/04/20 04:51:10;;;;;;;4.80;4.40;;;;;;;6.79;100.00;102406.81;5071275;28;20437;-45
2023/04/20 04:53:38;;;;;;;5.40;5.00;;;;;;;6.77;100.00;102411.41;5070965;28;20534;-45
2023/04/20 04:56:06;;;;;;;4.40;4.17;;;;;;;6.73;100.00;102404.69;5071141;28;20863;-47
2023/04/20 04:58:34;;;;;;;4.90;4.50;;;;;;;6.76;100.00;102396.47;5070760;28;20457;-48
2023/04/20 05:01:02;;;;;;;5.60;5.13;;;;;;;6.77;100.00;102413.22;5070959;28;20980;-46
2023/04/20 05:03:30;;;;;;;5.43;4.93;;;;;;;6.79;100.00;102425.38;5070712;28;20966;-46
2023/04/20 05:05:58;;;;;;;5.13;4.83;;;;;;;6.82;100.00;102380.03;5071145;28;20492;-47
2023/04/20 05:08:27;;;;;;;4.73;4.43;;;;;;;6.84;100.00;102398.47;5073085;28;20485;-45
2023/04/20 05:10:55;;;;;;;4.60;4.30;;;;;;;6.83;100.00;102394.97;5074595;28;20458;-50
2023/04/20 05:13:22;;;;;;;4.83;4.53;;;;;;;6.93;100.00;102410.94;5074293;28;20436;-48
2023/04/20 05:15:50;;;;;;;4.97;4.43;;;;;;;6.90;100.00;102406.72;5074329;28;20800;-44
2023/04/20 05:18:18;;;;;;;5.83;4.40;;;;;;;6.89;100.00;102410.38;5072054;28;20772;-46
2023/04/20 05:20:46;;;;;;;6.10;4.57;;;;;;;6.91;100.00;102405.75;5074439;28;20466;-45
2023/04/20 05:23:13;;;;;;;4.50;4.23;;;;;;;6.92;100.00;102414.56;5074248;28;20442;-49
2023/04/20 05:25:43;;;;;;;9.43;4.53;;;;;;;6.99;100.00;102399.81;5074210;28;20456;-48
2023/04/20 05:28:10;;;;;;;4.73;4.53;;;;;;;7.02;100.00;102395.06;5073739;28;20426;-47
2023/04/20 05:30:38;;;;;;;4.50;4.30;;;;;;;7.11;100.00;102404.03;5074374;28;20426;-47
2023/04/20 05:33:05;;;;;;;5.20;4.80;;;;;;;7.24;100.00;102402.84;5074206;28;20812;-46
2023/04/20 05:35:33;;;;;;;5.50;5.00;;;;;;;7.54;100.00;102406.41;5074238;28;20426;-50
2023/04/20 05:38:04;;;;;;;5.23;4.73;;;;;;;7.83;100.00;102420.56;5073692;28;20426;-48
2023/04/20 05:40:33;;;;;;;4.53;4.23;;;;;;;8.07;100.00;102418.34;5073864;28;20514;-49
2023/04/20 05:43:02;;;;;;;5.33;4.93;;;;;;;8.65;100.00;102405.03;5073565;28;20430;-45
2023/04/20 05:45:31;;;;;;;4.90;4.70;;;;;;;8.96;100.00;102395.81;5073908;28;20430;-43
2023/04/20 05:47:59;;;;;;;5.37;4.70;;;;;;;9.11;100.00;102401.53;5074014;28;20431;-42
2023/04/20 05:50:28;;;;;;;4.83;4.53;;;;;;;9.20;100.00;102408.63;5063284;28;20550;-47
2023/04/20 05:52:55;;;;;;;5.40;5.10;;;;;;;9.04;100.00;102395.94;5073646;28;20457;-49
2023/04/20 05:55:23;;;;;;;4.40;4.20;;;;;;;8.98;100.00;102401.84;5073578;28;20776;-47
2023/04/20 05:57:51;;;;;;;4.83;4.53;;;;;;;8.69;100.00;102403.78;5073893;28;20473;-45
2023/04/20 06:00:21;;;;;;;4.73;4.40;;;;;;;8.59;100.00;102425.06;5073094;28;20474;-49
2023/04/20 06:02:53;;;;;;;5.50;5.20;;;;;;;8.96;100.00;102395.81;5073542;28;20491;-47
2023/04/20 06:05:21;;;;;;;6.13;5.63;;;;;;;9.49;98.81;102403.16;5073495;28;20430;-47
2023/04/20 06:07:49;;;;;;;5.23;4.93;;;;;;;10.05;99.22;102400.22;5073315;28;20451;-48
2023/04/20 06:10:17;;;;;;;5.63;5.00;;;;;;;10.50;93.87;102417.81;5072882;28;20468;-48
2023/04/20 06:12:45;;;;;;;6.03;4.60;;;;;;;10.48;90.21;102395.78;5073347;28;20434;-46
2023/04/20 06:15:13;;;;;;;5.70;4.77;;;;;;;11.04;84.54;102397.13;5073247;28;20442;-48
2023/04/20 06:17:42;;;;;;;5.17;4.77;;;;;;;11.17;85.25;102394.03;5073079;28;20455;-48
2023/04/20 06:20:10;;;;;;;5.40;5.00;;;;;;;10.97;84.33;102404.94;5070577;28;20482;-47
2023/04/20 06:22:42;;;;;;;5.50;5.10;;;;;;;10.19;87.73;102399.72;5072843;28;20456;-48
2023/04/20 06:25:10;;;;;;;5.07;4.70;;;;;;;9.69;92.38;102412.69;5073301;28;20430;-50
2023/04/20 06:27:38;;;;;;;6.93;5.37;;;;;;;9.67;89.74;102410.19;5072947;28;20450;-46
2023/04/20 06:30:07;;;;;;;7.40;5.70;;;;;;;9.51;91.91;102402.00;5072279;28;20466;-50
2023/04/20 06:32:34;;;;;;;7.93;5.23;;;;;;;9.42;97.28;102411.72;5072766;28;20460;-44
2023/04/20 06:35:04;;;;;;;5.50;4.97;;;;;;;9.21;98.26;102395.16;5072789;28;20521;-46
2023/04/20 06:37:31;;;;;;;5.93;5.50;;;;;;;9.18;100.00;102403.44;5073032;28;20883;-51
2023/04/20 06:39:59;;;;;;;5.17;4.87;;;;;;;9.07;100.00;102402.78;5072196;28;20541;-47
2023/04/20 06:42:26;;;;;;;5.60;5.03;;;;;;;9.01;100.00;102403.38;5072613;28;20439;-49
2023/04/20 06:44:55;;;;;;;5.30;4.93;;;;;;;9.10;100.00;102394.53;5072828;28;20430;-44
2023/04/20 06:47:30;;;;;;;4.87;4.57;;;;;;;9.05;100.00;102400.25;5072511;28;20464;-44
2023/04/20 06:49:58;;;;;;;5.30;4.87;;;;;;;9.29;100.00;102410.38;5072155;28;20457;-45
2023/04/20 06:52:27;;;;;;;5.87;5.10;;;;;;;9.52;100.00;102411.69;5072563;28;20862;-47
2023/04/20 06:54:55;;;;;;;5.67;5.27;;;;;;;9.43;100.00;102405.44;5072400;28;20434;-43
2023/04/20 06:57:22;;;;;;;4.83;4.43;;;;;;;9.56;100.00;102404.25;5072426;28;20488;-47
2023/04/20 06:59:50;;;;;;;4.63;4.30;;;;;;;9.66;100.00;102403.19;5071978;28;20468;-47
2023/04/20 07:02:18;;;;;;;5.30;5.00;;;;;;;9.73;100.00;102406.09;5072030;28;20470;-50
2023/04/20 07:04:45;;;;;;;5.17;4.77;;;;;;;9.87;100.00;102401.06;5072243;28;20434;-45
2023/04/20 07:07:13;;;;;;;7.73;5.30;;;;;;;9.84;97.82;102421.84;5072173;28;20971;-48
2023/04/20 07:09:42;;;;;;;5.10;4.70;;;;;;;10.13;99.39;102406.50;5071706;28;20473;-48
2023/04/20 07:12:14;;;;;;;4.73;4.43;;;;;;;10.18;96.10;102416.72;5072063;28;20811;-46
2023/04/20 07:14:42;;;;;;;6.07;5.63;;;;;;;10.67;92.69;102415.25;5072087;28;20426;-46
2023/04/20 07:17:09;;;;;;;5.20;4.63;;;;;;;11.12;84.49;102397.16;5071968;28;20457;-46
2023/04/20 07:19:37;;;;;;;5.60;5.30;;;;;;;11.12;87.42;102415.84;5069342;28;20480;-44
2023/04/20 07:22:05;;;;;;;4.93;4.50;;;;;;;11.14;85.71;102408.50;5071847;28;20473;-44
2023/04/20 07:24:32;;;;;;;5.40;5.00;;;;;;;11.04;86.67;102407.81;5072060;28;20465;-47
2023/04/20 07:27:01;;;;;;;4.73;4.43;;;;;;;11.12;89.53;102405.16;5071910;28;20454;-47
2023/04/20 07:29:29;;;;;;;5.67;5.17;;;;;;;11.20;85.76;102407.88;5071132;28;20459;-48
2023/04/20 07:31:59;;;;;;;6.40;5.60;;;;;;;10.85;89.68;102405.34;5071807;28;20431;-49
2023/04/20 07:34:27;;;;;;;5.80;5.30;;;;;;;11.16;91.61;102424.38;5071955;28;20438;-49
2023/04/20 07:36:54;;;;;;;4.93;4.43;;;;;;;10.68;89.57;102414.25;5071763;28;20524;-46
2023/04/20 07:39:24;;;;;;;6.73;5.30;;;;;;;10.43;92.64;102418.56;5071367;28;20466;-47
2023/04/20 07:41:51;;;;;;;5.50;5.03;;;;;;;10.20;98.25;102431.56;5071435;28;21042;-45
2023/04/20 07:44:20;;;;;;;5.53;5.03;;;;;;;9.93;99.82;102416.44;5071980;28;20823;-46
2023/04/20 07:46:49;;;;;;;6.23;5.63;;;;;;;10.02;100.00;102425.34;5071619;28;20462;-44
2023/04/20 07:49:17;;;;;;;7.50;5.60;;;;;;;10.09;100.00;102413.09;5071507;28;20539;-45
2023/04/20 07:51:45;;;;;;;5.50;5.00;;;;;;;10.34;100.00;102416.84;5071470;28;20427;-48
2023/04/20 07:54:13;;;;;;;5.77;5.23;;;;;;;10.29;94.02;102419.97;5071567;28;20438;-45
2023/04/20 07:56:40;;;;;;;6.17;5.67;;;;;;;10.24;100.00;102419.59;5071444;28;20452;-48
2023/04/20 07:59:08;;;;;;;6.63;5.50;;;;;;;10.19;98.04;102421.03;5071269;28;20460;-49
2023/04/20 08:01:37;;;;;;;5.70;5.20;;;;;;;10.00;99.08;102400.69;5071270;28;20536;-46
2023/04/20 08:04:05;;;;;;;7.07;6.43;;;;;;;9.95;100.00;102424.28;5071607;28;20434;-49
2023/04/20 08:06:33;;;;;;;6.23;5.60;;;;;;;9.90;99.28;102415.91;5071424;28;20482;-50
2023/04/20 08:09:02;;;;;;;6.33;5.67;;;;;;;9.82;99.53;102424.66;5071098;28;20458;-47
2023/04/20 08:11:30;;;;;;;6.07;5.67;;;;;;;9.60;100.00;102419.75;5071429;28;20476;-46
2023/04/20 08:13:57;;;;;;;5.83;5.33;;;;;;;9.37;100.00;102419.34;5071635;28;20870;-51
2023/04/20 08:16:25;;;;;;;7.43;6.73;;;;;;;9.24;100.00;102413.50;5071591;28;20475;-49
2023/04/20 08:18:54;;;;;;;7.33;6.63;;;;;;;9.09;100.00;102414.13;5067672;28;20501;-47
2023/04/20 08:21:22;;;;;;;6.10;5.57;;;;;;;8.96;100.00;102422.44;5071081;28;20831;-45
2023/04/20 08:23:52;;;;;;;6.70;6.10;;;;;;;8.87;100.00;102418.81;5071654;28;20531;-43
2023/04/20 08:26:24;;;;;;;6.50;6.00;;;;;;;8.75;100.00;102435.13;5071463;28;20869;-46
2023/04/20 08:28:51;;;;;;;6.87;6.03;;;;;;;8.62;100.00;102424.78;5070988;28;20462;-45
2023/04/20 08:31:19;;;;;;;6.63;6.13;;;;;;;8.64;100.00;102417.47;5071224;28;20436;-50
2023/04/20 08:33:47;;;;;;;5.40;4.90;;;;;;;8.47;100.00;102418.22;5071025;28;20521;-46
2023/04/20 08:36:17;;;;;;;6.50;6.00;;;;;;;8.45;100.00;102416.69;5071325;28;20531;-44
2023/04/20 08:38:45;;;;;;;7.00;5.90;;;;;;;8.57;100.00;102412.91;5070965;28;20533;-49
2023/04/20 08:41:13;;;;;;;6.80;6.07;;;;;;;8.57;100.00;102423.53;5071947;28;20838;-44
2023/04/20 08:43:41;;;;;;;10.73;6.50;;;;;;;8.68;100.00;102418.88;5074831;28;21043;-49
2023/04/20 08:46:09;;;;;;;6.30;5.80;;;;;;;8.90;100.00;102426.50;5074615;28;20466;-45
2023/04/20 08:48:38;;;;;;;6.20;5.80;;;;;;;9.07;100.00;102416.09;5074664;28;20527;-48
2023/04/20 08:51:06;;;;;;;5.93;5.53;;;;;;;9.02;100.00;102437.81;5074716;28;20955;-45
2023/04/20 08:53:35;;;;;;;5.97;5.37;;;;;;;9.04;100.00;102422.56;5074729;28;20842;-46
2023/04/20 08:56:03;;;;;;;6.30;5.50;;;;;;;9.12;100.00;102430.66;5074829;28;20458;-44
2023/04/20 08:58:32;;;;;;;6.20;5.60;;;;;;;9.09;100.00;102422.94;5074384;28;20454;-45
2023/04/20 09:01:00;;;;;;;6.90;6.40;;;;;;;9.21;100.00;102426.25;5074545;28;20792;-42
2023/04/20 09:03:33;;;;;;;10.60;6.50;;;;;;;9.29;100.00;102442.34;5074652;28;20466;-44
2023/04/20 09:06:01;;;;;;;6.80;6.27;;;;;;;9.24;100.00;102449.94;5074716;28;20442;-46
2023/04/20 09:08:38;;;;;;;7.33;6.37;;;;;;;9.15;100.00;102453.47;5073826;28;20458;-46
2023/04/20 09:11:06;;;;;;;7.80;7.10;;;;;;;9.10;100.00;102450.41;5074497;28;20456;-49
2023/04/20 09:13:34;;;;;;;5.93;5.63;;;;;;;9.12;100.00;102446.63;5074182;28;21199;-42
2023/04/20 09:16:11;;;;;;;6.73;6.23;;;;;;;9.12;100.00;102451.09;5074552;28;20461;-43
2023/04/20 09:18:39;;;;;;;7.27;6.77;;;;;;;9.11;100.00;102452.91;5048119;28;20468;-45
2023/04/20 09:21:09;;;;;;;8.03;7.40;;;;;;;9.16;100.00;102455.16;5074193;28;20496;-43
2023/04/20 09:23:38;;;;;;;8.07;7.20;;;;;;;9.09;100.00;102454.88;5074007;28;20936;-45
2023/04/20 09:26:06;;;;;;;7.20;6.60;;;;;;;9.05;100.00;102463.31;5074089;28;21296;-43
2023/04/20 09:28:38;;;;;;;9.00;6.70;;;;;;;9.04;100.00;102461.63;5074002;28;20882;-45
2023/04/20 09:31:17;;;;;;;7.27;6.53;;;;;;;9.05;100.00;102465.97;5074136;28;20442;-43
2023/04/20 09:33:44;;;;;;;8.97;6.63;;;;;;;9.01;100.00;102451.28;5074281;28;20434;-46
2023/04/20 09:36:12;;;;;;;7.13;6.53;;;;;;;9.14;100.00;102457.94;5073918;28;20486;-44
2023/04/20 09:38:42;;;;;;;12.20;7.20;;;;;;;9.33;100.00;102457.88;5073572;28;20464;-49
2023/04/20 09:41:10;;;;;;;9.40;7.10;;;;;;;9.66;100.00;102455.59;5074254;28;20437;-47
2023/04/20 09:43:40;;;;;;;8.10;7.40;;;;;;;9.86;100.00;102452.66;5073908;28;20506;-44
2023/04/20 09:46:08;;;;;;;13.07;7.90;;;;;;;9.92;100.00;102449.41;5073855;28;20469;-50
2023/04/20 09:48:35;;;;;;;10.23;6.57;;;;;;;10.02;100.00;102463.50;5073450;28;20462;-44
2023/04/20 09:51:03;;;;;;;12.17;7.50;;;;;;;10.01;100.00;102455.66;5073699;28;20804;-44
2023/04/20 09:53:32;;;;;;;8.80;6.70;;;;;;;9.78;100.00;102454.41;5073187;28;20918;-44
2023/04/20 09:56:02;;;;;;;7.13;6.60;;;;;;;9.85;100.00;102450.19;5073841;28;20458;-47
2023/04/20 09:58:32;;;;;;;8.93;7.50;;;;;;;9.73;100.00;102443.38;5073622;28;20534;-47
2023/04/20 10:01:01;;;;;;;8.47;7.30;;;;;;;9.88;100.00;102442.72;5073736;28;20472;-50
2023/04/20 10:03:29;;;;;;;14.57;7.70;;;;;;;10.06;100.00;102452.56;5073235;28;20565;-46
2023/04/20 10:05:57;;;;;;;8.37;7.60;;;;;;;10.33;100.00;102441.84;5073659;28;20461;-48
2023/04/20 10:08:24;;;;;;;7.60;6.80;;;;;;;10.53;100.00;102454.84;5073248;28;20454;-48
2023/04/20 10:10:53;;;;;;;8.37;7.57;;;;;;;10.89;100.00;102450.28;5073652;28;20434;-48
2023/04/20 10:13:34;;;;;;;10.57;7.90;;;;;;;11.11;100.00;102441.72;5073377;28;20434;-48
2023/04/20 10:16:01;;;;;;;7.43;6.70;;;;;;;11.32;100.00;102430.63;5073202;28;20441;-46
2023/04/20 10:18:29;;;;;;;10.13;7.93;;;;;;;11.39;100.00;102454.88;5062509;28;20462;-46
2023/04/20 10:21:05;;;;;;;12.23;7.30;;;;;;;11.32;100.00;102452.00;5073474;28;20444;-47
2023/04/20 10:23:33;;;;;;;9.43;7.70;;;;;;;11.47;100.00;102458.41;5073431;28;20466;-43
2023/04/20 10:26:02;;;;;;;8.43;7.63;;;;;;;11.46;100.00;102450.56;5073464;28;20914;-49
2023/04/20 10:28:41;;;;;;;12.53;9.10;;;;;;;11.73;100.00;102447.69;5072892;28;20484;-46
2023/04/20 10:31:12;;;;;;;9.40;8.47;;;;;;;11.68;100.00;102430.44;5073228;28;20437;-51
2023/04/20 10:33:49;;;;;;;9.30;8.50;;;;;;;11.82;100.00;102440.53;5072720;28;20438;-45
2023/04/20 10:36:24;;;;;;;11.00;8.53;;;;;;;11.70;100.00;102439.16;5072928;28;20533;-51
2023/04/20 10:38:53;;;;;;;8.50;7.63;;;;;;;11.86;100.00;102439.19;5072316;28;20466;-45
2023/04/20 10:41:21;;;;;;;13.00;9.67;;;;;;;11.89;100.00;102433.50;5072704;28;20431;-46
2023/04/20 10:43:50;;;;;;;14.70;10.27;;;;;;;11.91;100.00;102429.69;5072919;28;20466;-51
2023/04/20 10:46:20;;;;;;;10.50;9.33;;;;;;;12.25;100.00;102420.69;5072680;28;20462;-45
2023/04/20 10:48:53;;;;;;;10.93;8.60;;;;;;;12.66;100.00;102423.16;5069654;28;20473;-49
2023/04/20 10:51:21;;;;;;;11.93;8.93;;;;;;;12.60;100.00;102431.88;5072391;28;20835;-46
2023/04/20 10:54:03;;;;;;;12.50;9.13;;;;;;;12.58;100.00;102425.88;5072797;28;20443;-47
2023/04/20 10:56:38;;;;;;;11.73;8.80;;;;;;;12.41;100.00;102444.78;5072676;28;20457;-44
2023/04/20 10:59:08;;;;;;;10.70;9.60;;;;;;;12.33;100.00;102445.63;5071967;28;20465;-44
2023/04/20 11:01:36;;;;;;;10.13;8.73;;;;;;;12.05;100.00;102460.28;5072440;28;20441;-45
2023/04/20 11:04:04;;;;;;;13.27;9.10;;;;;;;12.13;100.00;102439.75;5071976;28;20470;-44
2023/04/20 11:06:32;;;;;;;11.23;10.13;;;;;;;12.31;100.00;102436.06;5071877;28;20493;-45
2023/04/20 11:09:00;;;;;;;10.70;9.50;;;;;;;12.10;100.00;102428.53;5071952;28;20515;-48
2023/04/20 11:11:28;;;;;;;10.03;8.27;;;;;;;12.27;100.00;102426.72;5072116;28;20449;-45
2023/04/20 11:14:07;;;;;;;13.70;9.70;;;;;;;12.43;100.00;102424.88;5072328;28;20521;-50
2023/04/20 11:16:36;;;;;;;10.43;9.33;;;;;;;12.53;100.00;102430.06;5072314;28;20458;-45
2023/04/20 11:19:22;;;;;;;11.77;9.10;;;;;;;12.44;100.00;102412.34;5061053;28;20535;-46
2023/04/20 11:21:50;;;;;;;12.77;9.80;;;;;;;12.60;100.00;102405.09;5071870;28;20958;-45
2023/04/20 11:24:19;;;;;;;10.03;9.10;;;;;;;12.52;100.00;102398.94;5072028;28;20470;-46
2023/04/20 11:26:49;;;;;;;11.00;9.57;;;;;;;12.62;100.00;102399.59;5071866;28;20612;-46
2023/04/20 11:29:30;;;;;;;14.07;9.60;;;;;;;12.49;100.00;102408.13;5071765;28;20469;-52
2023/04/20 11:32:00;;;;;;;10.73;9.63;;;;;;;12.60;100.00;102385.56;5071903;28;20430;-48